Country
Station

 

Weather  for  Berens River Airport  -  Canada    Canada

  
-14 °C (7 °F)
    
 
 

Current METAR for Berens River Airport is :

CYBV 161800Z 03006KT 340V060 15SM FEW120 FEW220 M14/M18 A3030 RMK AC1CS1 SLP285

 

This is a report for Berens River Airport - Canada.
 
The report was made one hour and 3 minutes ago, at 18:00 UTC .
The wind was blowing at a speed of 3.1 meters per second (6.9 miles per hour) from north/northeast (030°), varying between north/northwest (340°) and east/northeast (060°).
 
The temperature was -14 °C (7 °F), with a dew-point at -18 °C (-0 °F).
The temperature felt like -19 °C (-5 °F).
 
The atmospheric pressure was 1026 hPa (30.30 inHg).
The relative humidity was 71.6%.
 
There were a few clouds at a height of 3658 meters (12000 feet) and a few clouds at a height of 6706 meters (22000 feet).
 
The overall visibility was 24.1 kilometers (15.0 miles).
 

 
 
 
 

Country :   A   B   C   D   E   F   G   H   I   J   K   L   M   N   O   P   Q   R   S   T   U   V   W   Y   Z

 

Site Info  |  Disclaimer  |  Credits  |  Privacy
Contact us  |  Add to favorites
© 2013-2018 METARs - All rights reserved